KQPB

2018-10-18 01:45:08Z

Plaintext report →

Temperature
High0.0 °C32.0 °F
Current0.0 °C32.0 °F
Low0.0 °C32.0 °F
Feels LikeUnavailable
Dewpoint0.0 °C32.0 °F
Winds
Speed and Direction1.4 m/s3.1 mi/h 2 kn 0 °
Gust0.0 m/s0.00 mi/h 0 kn
SquallUnavailable
Pressure and Humidity
Pressure At Field Level1009.3 mb29.8 in
Pressure At Sea Level0.0 mb0.0 in
Pressure Trend0.1 mb0.0 in
Pressure Tendency 4
HumidityUnavailable

Station Alarms & Warnings:

Ceilometer Alarms / Warnings:

Ceilometer Data Missing!
Historical Weather Phenomenon Graphs

Additional Information:

  METAR KQPB 180145Z AUTO 36002KT NCD 00/00 A2980 RMK AO2 SLPNO 10000 20000
  54000 PWINO $=    
Cloud Cover
Layer 1 Undetected
Layer 2 Undetected
Layer 3 Undetected
Winds
2-minute Winds
Minimum0.4 m/s0.89 mi/h 0 knDirection Unavailable
Average1.4 m/s3.13 mi/h 2 knDirection Unavailable
Maximum2.1 m/s4.70 mi/h 4 knDirection Unavailable
10-minute Winds
Minimum0.0 m/s0.00 mi/h 0 knDirection Unavailable
Average0.5 m/s1.12 mi/h 0 knDirection Unavailable
Maximum2.1 m/s4.70 mi/h 4 knDirection Unavailable
Precipitation
IntensityUnavailable
Rainfall
1-hour Total0.00 mm0.00 in
3-hour Total0.00 mm0.00 in
6-hour Total0.00 mm0.00 in
24-hour Total0.00 mm0.00 in
Precipitation
1-hour TotalUnavailable
3-hour TotalUnavailable
6-hour TotalUnavailable
24-hour TotalUnavailable
Snowfall
1-hour TotalUnavailable
3-hour TotalUnavailable
6-hour TotalUnavailable
24-hour TotalUnavailable